Time;durP1;ratioP1;P1;durP2;ratioP2;P2;SDS_P1;SDS_P2;PMS_P1;PMS_P2;Temp;Humidity;BMP_temperature;BMP_pressure;BME280_temperature;BME280_humidity;BME280_pressure;Samples;Min_cycle;Max_cycle;Signal;HPM_P1;HPM_P2
2022/11/28 00:01:00;;;;;;;11.83;8.43;;;6.00;99.90;;;;;;4911346;29;20312;-73
2022/11/28 00:03:28;;;;;;;12.60;8.03;;;6.00;99.90;;;;;;4911697;29;20217;-73
2022/11/28 00:05:55;;;;;;;10.63;7.43;;;6.00;99.90;;;;;;4911383;29;20327;-73
2022/11/28 00:08:22;;;;;;;13.73;8.50;;;6.00;99.90;;;;;;4911736;29;20308;-73
2022/11/28 00:10:49;;;;;;;8.63;7.63;;;6.00;99.90;;;;;;4911234;29;20213;-73
2022/11/28 00:13:16;;;;;;;8.80;7.90;;;5.90;99.90;;;;;;4911606;29;20303;-74
2022/11/28 00:15:43;;;;;;;9.27;7.80;;;5.90;99.90;;;;;;4911413;29;20209;-73
2022/11/28 00:18:10;;;;;;;11.00;7.77;;;5.90;99.90;;;;;;4911535;29;20323;-73
2022/11/28 00:20:38;;;;;;;9.27;7.63;;;5.90;99.90;;;;;;4911832;29;20205;-74
2022/11/28 00:23:05;;;;;;;13.93;8.27;;;6.00;99.90;;;;;;4911098;29;20213;-73
2022/11/28 00:25:32;;;;;;;10.87;7.90;;;5.90;99.90;;;;;;4911366;29;20723;-73
2022/11/28 00:27:59;;;;;;;9.73;7.67;;;6.00;99.90;;;;;;4911508;29;20221;-72
2022/11/28 00:30:26;;;;;;;10.13;7.93;;;5.90;99.90;;;;;;4911311;29;20212;-73
2022/11/28 00:32:52;;;;;;;11.27;7.83;;;5.90;99.90;;;;;;4911012;29;20630;-72
2022/11/28 00:35:19;;;;;;;11.33;7.90;;;5.90;99.90;;;;;;4911461;29;20315;-72
2022/11/28 00:37:47;;;;;;;10.00;7.77;;;5.90;99.90;;;;;;4911322;29;20282;-73
2022/11/28 00:40:14;;;;;;;11.50;8.07;;;5.90;99.90;;;;;;4911362;29;20475;-72
2022/11/28 00:42:41;;;;;;;10.33;7.77;;;5.90;99.90;;;;;;4911342;29;20223;-72
2022/11/28 00:45:09;;;;;;;12.20;9.07;;;5.80;99.90;;;;;;4911387;29;20307;-73
2022/11/28 00:47:36;;;;;;;9.23;7.67;;;5.90;99.90;;;;;;4911532;29;20255;-72
2022/11/28 00:50:03;;;;;;;10.67;8.57;;;5.90;99.90;;;;;;4911450;29;20299;-73
2022/11/28 00:52:32;;;;;;;10.10;8.00;;;5.80;99.90;;;;;;4911723;29;20296;-73
2022/11/28 00:55:00;;;;;;;9.63;8.20;;;5.80;99.90;;;;;;4911213;29;20300;-73
2022/11/28 00:57:27;;;;;;;9.27;8.30;;;5.80;99.90;;;;;;4911363;29;20251;-73
2022/11/28 00:59:53;;;;;;;12.07;8.70;;;5.80;99.90;;;;;;4910895;29;20312;-73
2022/11/28 01:02:20;;;;;;;9.87;7.83;;;5.80;99.90;;;;;;4910931;29;20308;-73
2022/11/28 01:04:47;;;;;;;12.03;7.93;;;5.80;99.90;;;;;;4911153;29;20638;-73
2022/11/28 01:07:14;;;;;;;9.30;8.00;;;5.80;99.90;;;;;;4911009;29;20252;-73
2022/11/28 01:09:41;;;;;;;10.83;7.97;;;5.80;99.90;;;;;;4901744;29;20213;-73
2022/11/28 01:12:09;;;;;;;15.37;8.73;;;5.80;99.90;;;;;;4911291;29;20219;-72
2022/11/28 01:14:36;;;;;;;9.40;7.87;;;5.80;99.90;;;;;;4910458;29;20724;-72
2022/11/28 01:17:03;;;;;;;10.53;8.13;;;5.80;99.90;;;;;;4910977;29;20238;-71
2022/11/28 01:19:30;;;;;;;10.23;7.60;;;5.80;99.90;;;;;;4910699;29;20204;-71
2022/11/28 01:21:57;;;;;;;11.50;8.33;;;5.80;99.90;;;;;;4910643;29;20205;-71
2022/11/28 01:24:24;;;;;;;10.77;7.60;;;5.80;99.90;;;;;;4910441;29;20307;-73
2022/11/28 01:26:50;;;;;;;11.70;8.07;;;5.70;99.90;;;;;;4910850;29;20316;-73
2022/11/28 01:29:19;;;;;;;12.03;8.37;;;5.70;99.90;;;;;;4910925;29;20312;-74
2022/11/28 01:31:45;;;;;;;9.90;8.30;;;5.70;99.90;;;;;;4910230;29;20307;-73
2022/11/28 01:34:12;;;;;;;10.20;8.37;;;5.70;99.90;;;;;;4910708;29;20307;-73
2022/11/28 01:36:39;;;;;;;12.33;9.00;;;5.70;99.90;;;;;;4913118;29;20239;-73
2022/11/28 01:39:06;;;;;;;10.80;8.10;;;5.70;99.90;;;;;;4914160;29;20248;-73
2022/11/28 01:41:33;;;;;;;11.33;8.23;;;5.70;99.90;;;;;;4914301;29;20323;-73
2022/11/28 01:44:07;;;;;;;10.23;8.33;;;5.70;99.90;;;;;;4913738;29;20233;-73
2022/11/28 01:46:36;;;;;;;10.17;8.50;;;5.60;99.90;;;;;;4914079;29;20240;-73
2022/11/28 01:49:09;;;;;;;11.83;8.40;;;5.60;99.90;;;;;;4914317;29;20307;-73
2022/11/28 01:51:36;;;;;;;11.63;8.20;;;5.60;99.90;;;;;;4896040;29;20320;-75
2022/11/28 01:54:04;;;;;;;9.77;8.77;;;5.60;99.90;;;;;;4903737;29;20302;-75
2022/11/28 01:56:38;;;;;;;10.00;8.90;;;5.60;99.90;;;;;;4914310;29;20677;-75
2022/11/28 01:59:09;;;;;;;10.20;8.90;;;5.60;99.90;;;;;;4913978;29;20319;-75
2022/11/28 02:01:38;;;;;;;11.50;8.40;;;5.60;99.90;;;;;;4913892;29;20209;-75
2022/11/28 02:04:05;;;;;;;10.90;9.40;;;5.60;99.90;;;;;;4914287;29;20296;-74
2022/11/28 02:06:33;;;;;;;9.80;8.17;;;5.60;99.90;;;;;;4914114;29;20383;-74
2022/11/28 02:08:59;;;;;;;13.83;9.20;;;5.60;99.90;;;;;;4913487;29;20303;-74
2022/11/28 02:11:45;;;;;;;11.70;9.20;;;5.60;99.90;;;;;;4914053;29;20755;-74
2022/11/28 02:14:24;;;;;;;11.27;8.30;;;5.60;99.90;;;;;;4919551;29;20738;-74
2022/11/28 02:17:07;;;;;;;12.53;9.17;;;5.60;99.90;;;;;;4932563;29;20208;-75
2022/11/28 02:20:05;;;;;;;9.60;8.60;;;5.60;99.90;;;;;;4932848;29;20193;-74
2022/11/28 02:22:37;;;;;;;11.10;8.93;;;5.60;99.90;;;;;;4896902;29;20249;-75
2022/11/28 02:25:24;;;;;;;13.23;8.60;;;5.50;99.90;;;;;;4913831;29;20200;-75
2022/11/28 02:28:28;;;;;;;11.70;9.20;;;5.50;99.90;;;;;;4913560;29;20295;-73
2022/11/28 02:31:05;;;;;;;11.93;9.50;;;5.50;99.90;;;;;;4903925;29;20220;-75
2022/11/28 02:33:35;;;;;;;10.10;8.97;;;5.50;99.90;;;;;;4913716;29;20193;-74
2022/11/28 02:36:09;;;;;;;11.17;8.77;;;5.50;99.90;;;;;;4913423;29;20511;-74
2022/11/28 02:38:48;;;;;;;12.07;9.50;;;5.50;99.90;;;;;;4913282;29;20255;-71
2022/11/28 02:41:22;;;;;;;11.37;8.70;;;5.40;99.90;;;;;;4913306;29;20304;-72
2022/11/28 02:43:55;;;;;;;11.23;8.87;;;5.40;99.90;;;;;;4913405;29;20245;-71
2022/11/28 02:46:28;;;;;;;9.70;8.70;;;5.40;99.90;;;;;;4913392;29;20200;-74
2022/11/28 02:49:00;;;;;;;10.60;8.90;;;5.40;99.90;;;;;;4913061;29;20197;-74
2022/11/28 02:51:31;;;;;;;9.40;8.40;;;5.40;99.90;;;;;;4913556;29;20211;-74
2022/11/28 02:54:01;;;;;;;10.67;8.47;;;5.40;99.90;;;;;;4912776;29;20294;-73
2022/11/28 02:56:28;;;;;;;10.67;8.77;;;5.40;99.90;;;;;;4913317;29;20220;-74
2022/11/28 02:58:55;;;;;;;11.10;8.73;;;5.40;99.90;;;;;;4912730;29;20232;-73
2022/11/28 03:01:26;;;;;;;10.40;8.47;;;5.40;99.90;;;;;;4913314;29;20244;-74
2022/11/28 03:04:06;;;;;;;10.70;8.30;;;5.40;99.90;;;;;;4912791;29;20307;-73
2022/11/28 03:06:43;;;;;;;11.33;8.30;;;5.40;99.90;;;;;;4913118;29;20243;-73
2022/11/28 03:09:38;;;;;;;9.47;8.03;;;5.40;99.90;;;;;;4909069;29;20236;-73
2022/11/28 03:12:15;;;;;;;8.97;8.07;;;5.40;99.90;;;;;;4913174;29;20197;-73
2022/11/28 03:14:53;;;;;;;9.20;8.17;;;5.40;99.90;;;;;;4912728;29;20295;-73
2022/11/28 03:17:32;;;;;;;9.70;8.67;;;5.40;99.90;;;;;;4912579;29;20217;-73
2022/11/28 03:20:19;;;;;;;10.70;8.60;;;5.30;99.90;;;;;;4910156;29;20228;-72
2022/11/28 03:23:01;;;;;;;9.63;8.40;;;5.30;99.90;;;;;;4911329;29;20207;-72
2022/11/28 03:25:34;;;;;;;8.90;7.83;;;5.30;99.90;;;;;;4903250;29;20324;-78
2022/11/28 03:28:07;;;;;;;11.70;8.70;;;5.30;99.90;;;;;;4901730;29;20200;-73
2022/11/28 03:30:40;;;;;;;9.40;8.50;;;5.30;99.90;;;;;;4904512;29;20295;-73
2022/11/28 03:33:08;;;;;;;8.33;7.50;;;5.30;99.90;;;;;;4907785;29;20196;-73
2022/11/28 03:35:43;;;;;;;8.93;7.20;;;5.30;99.90;;;;;;4911357;29;20256;-74
2022/11/28 03:38:16;;;;;;;10.40;8.00;;;5.30;99.90;;;;;;4907503;29;20224;-73
2022/11/28 03:40:48;;;;;;;9.43;7.57;;;5.30;99.90;;;;;;4908226;29;20327;-73
2022/11/28 03:43:18;;;;;;;9.67;7.43;;;5.40;99.90;;;;;;4910347;29;20312;-73
2022/11/28 03:45:49;;;;;;;9.23;7.93;;;5.30;99.90;;;;;;4909583;29;20744;-74
2022/11/28 03:48:21;;;;;;;8.77;7.77;;;5.30;99.90;;;;;;4909603;29;20288;-74
2022/11/28 03:50:56;;;;;;;10.00;7.57;;;5.30;99.90;;;;;;4910092;29;20308;-74
2022/11/28 03:53:27;;;;;;;9.30;7.50;;;5.30;99.90;;;;;;4909951;29;20296;-73
2022/11/28 03:56:01;;;;;;;10.90;7.50;;;5.30;99.90;;;;;;4909561;29;20277;-74
2022/11/28 03:58:34;;;;;;;11.27;7.70;;;5.30;99.90;;;;;;4910142;29;20232;-73
2022/11/28 04:01:07;;;;;;;8.57;7.63;;;5.30;99.90;;;;;;4910253;29;20288;-73
2022/11/28 04:03:43;;;;;;;8.27;7.47;;;5.20;99.90;;;;;;4910095;29;20236;-73
2022/11/28 04:06:19;;;;;;;10.07;7.57;;;5.20;99.90;;;;;;4908197;29;20703;-73
2022/11/28 04:08:52;;;;;;;10.77;8.07;;;5.20;99.90;;;;;;4910255;29;20208;-73
2022/11/28 04:11:25;;;;;;;10.10;7.93;;;5.20;99.90;;;;;;4908169;29;20766;-74
2022/11/28 04:13:57;;;;;;;9.20;8.10;;;5.20;99.90;;;;;;4909775;29;20236;-74
2022/11/28 04:16:31;;;;;;;9.27;8.13;;;5.10;99.90;;;;;;4910888;29;20235;-74
2022/11/28 04:19:02;;;;;;;9.13;7.40;;;5.20;99.90;;;;;;4910513;29;20317;-74
2022/11/28 04:21:34;;;;;;;8.43;7.30;;;5.20;99.90;;;;;;4910678;29;20284;-74
2022/11/28 04:24:05;;;;;;;9.10;7.53;;;5.10;99.90;;;;;;4910560;29;20297;-74
2022/11/28 04:26:35;;;;;;;11.87;8.37;;;5.10;99.90;;;;;;4910767;29;20197;-74
2022/11/28 04:29:05;;;;;;;12.20;8.40;;;5.10;99.90;;;;;;4911741;29;20303;-74
2022/11/28 04:31:33;;;;;;;9.00;7.70;;;5.10;99.90;;;;;;4911417;29;20264;-73
2022/11/28 04:34:05;;;;;;;11.57;8.17;;;5.10;99.90;;;;;;4911607;29;20213;-73
2022/11/28 04:36:37;;;;;;;12.00;7.70;;;5.10;99.90;;;;;;4911449;29;20237;-73
2022/11/28 04:39:09;;;;;;;9.50;8.50;;;5.10;99.90;;;;;;4910840;29;20320;-73
2022/11/28 04:41:40;;;;;;;11.57;7.57;;;5.10;99.90;;;;;;4911079;29;20276;-73
2022/11/28 04:44:13;;;;;;;11.07;8.50;;;5.10;99.90;;;;;;4911291;29;20228;-73
2022/11/28 04:46:43;;;;;;;11.33;8.80;;;5.10;99.90;;;;;;4911039;29;20291;-72
2022/11/28 04:49:11;;;;;;;12.43;8.60;;;5.10;99.90;;;;;;4891986;29;20591;-72
2022/11/28 04:51:46;;;;;;;10.80;8.07;;;5.10;99.90;;;;;;4892337;29;20256;-73
2022/11/28 04:54:19;;;;;;;10.03;8.40;;;5.10;99.90;;;;;;4891893;29;20211;-72
2022/11/28 04:56:53;;;;;;;9.77;8.63;;;5.20;99.90;;;;;;4892488;29;20296;-72
2022/11/28 04:59:22;;;;;;;10.40;8.30;;;5.20;99.90;;;;;;4892303;29;20229;-73
2022/11/28 05:01:50;;;;;;;8.73;7.83;;;5.20;99.90;;;;;;4892354;29;20303;-73
2022/11/28 05:04:17;;;;;;;10.77;8.37;;;5.20;99.90;;;;;;4892369;29;20245;-73
2022/11/28 05:06:45;;;;;;;10.87;8.43;;;5.20;99.90;;;;;;4898661;29;20244;-73
2022/11/28 05:09:13;;;;;;;10.80;8.63;;;5.20;99.90;;;;;;4910839;29;20299;-73
2022/11/28 05:11:40;;;;;;;8.90;7.93;;;5.10;99.90;;;;;;4913467;29;20307;-72
2022/11/28 05:14:07;;;;;;;11.37;8.67;;;5.20;99.90;;;;;;4914963;29;20213;-73
2022/11/28 05:16:34;;;;;;;9.80;8.13;;;5.20;99.90;;;;;;4914740;29;20304;-72
2022/11/28 05:19:01;;;;;;;10.30;8.53;;;5.20;99.90;;;;;;4914919;29;20327;-73
2022/11/28 05:21:28;;;;;;;11.70;8.27;;;5.20;99.90;;;;;;4915092;29;20296;-72
2022/11/28 05:23:57;;;;;;;10.40;8.10;;;5.20;99.90;;;;;;4914624;29;20213;-72
2022/11/28 05:26:24;;;;;;;11.13;8.83;;;5.10;99.90;;;;;;4915084;29;20291;-74
2022/11/28 05:28:52;;;;;;;10.40;8.50;;;5.20;99.90;;;;;;4914463;29;20204;-73
2022/11/28 05:31:20;;;;;;;10.93;8.43;;;5.20;99.90;;;;;;4914829;29;20268;-73
2022/11/28 05:33:47;;;;;;;10.47;8.53;;;5.20;99.90;;;;;;4914647;29;20217;-72
2022/11/28 05:36:18;;;;;;;9.23;8.23;;;5.20;99.90;;;;;;4914465;29;20276;-73
2022/11/28 05:38:45;;;;;;;8.70;7.80;;;5.20;99.90;;;;;;4914197;29;20734;-73
2022/11/28 05:41:21;;;;;;;12.23;8.20;;;5.20;99.90;;;;;;4914226;29;20323;-72
2022/11/28 05:43:48;;;;;;;10.10;8.70;;;5.20;99.90;;;;;;4914321;29;20342;-73
2022/11/28 05:46:15;;;;;;;10.80;8.43;;;5.20;99.90;;;;;;4914587;29;20304;-73
2022/11/28 05:48:42;;;;;;;8.80;7.90;;;5.20;99.90;;;;;;4913720;29;20240;-73
2022/11/28 05:51:09;;;;;;;11.60;8.50;;;5.20;99.90;;;;;;4914182;29;20679;-72
2022/11/28 05:53:36;;;;;;;13.90;9.30;;;5.20;99.90;;;;;;4914522;29;20296;-73
2022/11/28 05:56:06;;;;;;;10.37;8.43;;;5.20;99.90;;;;;;4914080;29;20231;-72
2022/11/28 05:58:35;;;;;;;11.67;9.10;;;5.20;99.90;;;;;;4914254;29;20331;-73
2022/11/28 06:01:09;;;;;;;10.63;8.00;;;5.20;99.90;;;;;;4914300;29;20208;-73
2022/11/28 06:03:36;;;;;;;11.13;8.70;;;5.20;99.90;;;;;;4914098;29;20299;-73
2022/11/28 06:06:03;;;;;;;11.97;8.57;;;5.20;99.90;;;;;;4913942;29;20319;-73
2022/11/28 06:08:30;;;;;;;10.83;9.00;;;5.20;99.90;;;;;;4906268;29;20299;-72
2022/11/28 06:10:57;;;;;;;10.47;7.97;;;5.10;99.90;;;;;;4913902;29;20545;-73
2022/11/28 06:13:25;;;;;;;10.23;8.23;;;5.10;99.90;;;;;;4914065;29;20567;-73
2022/11/28 06:15:53;;;;;;;9.57;8.50;;;5.10;99.90;;;;;;4913562;29;20303;-73
2022/11/28 06:18:20;;;;;;;10.23;8.17;;;5.10;99.90;;;;;;4913564;29;20704;-73
2022/11/28 06:20:47;;;;;;;10.73;8.33;;;5.10;99.90;;;;;;4913503;29;20300;-73
2022/11/28 06:23:14;;;;;;;11.70;7.93;;;5.10;99.90;;;;;;4913895;29;20295;-73
2022/11/28 06:25:41;;;;;;;10.47;8.53;;;5.10;99.90;;;;;;4913485;29;20209;-72
2022/11/28 06:28:07;;;;;;;11.33;8.57;;;5.10;99.90;;;;;;4913498;29;20582;-72
2022/11/28 06:30:34;;;;;;;10.10;8.33;;;5.10;99.90;;;;;;4913429;29;20970;-73
2022/11/28 06:33:03;;;;;;;12.30;8.77;;;5.10;99.90;;;;;;4913825;29;20213;-72
2022/11/28 06:35:30;;;;;;;10.70;8.07;;;5.10;99.90;;;;;;4913383;29;20271;-72
2022/11/28 06:37:56;;;;;;;9.73;8.53;;;5.10;99.90;;;;;;4913304;29;20759;-73
2022/11/28 06:40:23;;;;;;;10.87;9.00;;;5.00;99.90;;;;;;4912563;29;20245;-73
2022/11/28 06:42:50;;;;;;;10.40;8.53;;;5.00;99.90;;;;;;4913248;29;20215;-73
2022/11/28 06:45:17;;;;;;;10.27;7.83;;;5.00;99.90;;;;;;4913253;29;20240;-73
2022/11/28 06:47:44;;;;;;;11.70;7.97;;;5.00;99.90;;;;;;4912678;29;20209;-73
2022/11/28 06:50:13;;;;;;;9.93;8.37;;;5.00;99.90;;;;;;4913126;29;20299;-72
2022/11/28 06:52:40;;;;;;;11.50;8.47;;;5.00;99.90;;;;;;4913262;29;20292;-73
2022/11/28 06:55:08;;;;;;;11.07;8.70;;;5.00;99.90;;;;;;4912669;29;20676;-72
2022/11/28 06:57:35;;;;;;;11.90;8.63;;;5.00;99.90;;;;;;4913269;29;20296;-73
2022/11/28 07:00:03;;;;;;;10.53;8.67;;;5.00;99.90;;;;;;4913019;29;20244;-73
2022/11/28 07:02:30;;;;;;;14.10;8.70;;;5.00;99.90;;;;;;4913334;29;20297;-73
2022/11/28 07:04:57;;;;;;;9.87;8.43;;;5.00;99.90;;;;;;4912767;29;20235;-73
2022/11/28 07:07:25;;;;;;;14.07;8.67;;;5.00;99.90;;;;;;4912729;29;20247;-73
2022/11/28 07:09:52;;;;;;;10.60;8.70;;;5.00;99.90;;;;;;4912419;29;20308;-72
2022/11/28 07:12:19;;;;;;;8.77;7.90;;;5.00;99.90;;;;;;4913101;29;20217;-72
2022/11/28 07:14:46;;;;;;;10.20;8.67;;;5.10;99.90;;;;;;4912749;29;20236;-73
2022/11/28 07:17:13;;;;;;;11.93;8.60;;;5.00;99.90;;;;;;4912597;29;20248;-72
2022/11/28 07:19:40;;;;;;;9.13;8.10;;;5.10;99.90;;;;;;4912415;29;20287;-73
2022/11/28 07:22:07;;;;;;;11.20;9.37;;;5.00;99.90;;;;;;4912976;29;20240;-73
2022/11/28 07:24:35;;;;;;;13.20;9.57;;;5.00;99.90;;;;;;4912583;29;20291;-73
2022/11/28 07:27:02;;;;;;;10.17;8.37;;;5.00;99.90;;;;;;4912603;29;20292;-73
2022/11/28 07:29:34;;;;;;;13.10;9.47;;;5.10;99.90;;;;;;4912707;29;20248;-73
2022/11/28 07:32:01;;;;;;;10.57;8.93;;;5.10;99.90;;;;;;4912643;29;20207;-73
2022/11/28 07:34:28;;;;;;;10.80;8.77;;;5.10;99.90;;;;;;4911741;29;20600;-73
2022/11/28 07:36:55;;;;;;;11.60;9.10;;;5.10;99.90;;;;;;4911942;29;20476;-73
2022/11/28 07:39:22;;;;;;;10.67;9.10;;;5.10;99.90;;;;;;4912048;29;20328;-72
2022/11/28 07:41:51;;;;;;;11.17;8.67;;;5.10;99.90;;;;;;4912259;29;20320;-73
2022/11/28 07:44:17;;;;;;;14.13;10.03;;;5.10;99.90;;;;;;4912227;29;20221;-73
2022/11/28 07:46:45;;;;;;;12.67;9.53;;;5.10;99.90;;;;;;4912183;29;20298;-73
2022/11/28 07:49:13;;;;;;;12.43;9.43;;;5.10;99.90;;;;;;4911953;29;20304;-73
2022/11/28 07:51:40;;;;;;;11.67;9.90;;;5.10;99.90;;;;;;4912088;29;20234;-73
2022/11/28 07:54:08;;;;;;;12.03;9.27;;;5.10;99.90;;;;;;4912030;29;20311;-72
2022/11/28 07:56:36;;;;;;;12.37;9.50;;;5.10;99.90;;;;;;4912061;29;20221;-72
2022/11/28 07:59:06;;;;;;;11.20;9.10;;;5.10;99.90;;;;;;4912136;29;20267;-73
2022/11/28 08:01:35;;;;;;;11.83;9.33;;;5.10;99.90;;;;;;4912074;29;20220;-73
2022/11/28 08:04:03;;;;;;;13.10;9.77;;;5.10;99.90;;;;;;4912240;29;20303;-72
2022/11/28 08:06:31;;;;;;;10.77;9.00;;;5.20;99.90;;;;;;4911985;29;20323;-73
2022/11/28 08:09:00;;;;;;;13.80;10.40;;;5.20;99.90;;;;;;4911408;29;20305;-72
2022/11/28 08:11:29;;;;;;;12.87;10.23;;;5.20;99.90;;;;;;4912175;29;20613;-73
2022/11/28 08:13:56;;;;;;;16.00;10.83;;;5.20;99.90;;;;;;4912010;29;20223;-72
2022/11/28 08:16:25;;;;;;;13.70;10.40;;;5.20;99.90;;;;;;4912036;29;20304;-73
2022/11/28 08:18:53;;;;;;;13.37;10.17;;;5.20;99.90;;;;;;4911519;29;20844;-73
2022/11/28 08:21:22;;;;;;;14.87;10.30;;;5.20;99.90;;;;;;4911922;29;20220;-73
2022/11/28 08:23:50;;;;;;;13.23;10.07;;;5.20;99.90;;;;;;4911602;29;20240;-73
2022/11/28 08:26:18;;;;;;;13.63;10.53;;;5.20;99.90;;;;;;4911464;29;20244;-73
2022/11/28 08:28:45;;;;;;;14.17;11.23;;;5.20;99.90;;;;;;4911420;29;20209;-73
2022/11/28 08:31:13;;;;;;;13.67;9.47;;;5.20;99.90;;;;;;4911657;29;20295;-73
2022/11/28 08:33:41;;;;;;;15.40;10.77;;;5.10;99.90;;;;;;4911183;29;20675;-72
2022/11/28 08:36:10;;;;;;;13.90;10.30;;;5.20;99.90;;;;;;4911223;29;20637;-73
2022/11/28 08:38:38;;;;;;;14.20;10.27;;;5.20;99.90;;;;;;4911149;29;20213;-72
2022/11/28 08:41:07;;;;;;;14.97;10.50;;;5.20;99.90;;;;;;4910978;29;20319;-72
2022/11/28 08:43:35;;;;;;;13.63;10.30;;;5.20;99.90;;;;;;4911308;29;20698;-73
2022/11/28 08:46:02;;;;;;;13.73;10.63;;;5.20;99.90;;;;;;4911259;29;20240;-73
2022/11/28 08:48:30;;;;;;;14.13;10.40;;;5.20;99.90;;;;;;4910821;29;20295;-72
2022/11/28 08:50:58;;;;;;;12.60;10.80;;;5.20;99.90;;;;;;4911327;29;20220;-73
2022/11/28 08:53:25;;;;;;;12.40;10.47;;;5.20;99.90;;;;;;4911371;29;20300;-73
2022/11/28 08:55:52;;;;;;;15.03;10.50;;;5.20;99.90;;;;;;4910859;29;20212;-73
2022/11/28 08:58:19;;;;;;;15.40;10.40;;;5.30;99.90;;;;;;4911609;29;20615;-73
2022/11/28 09:00:46;;;;;;;14.87;10.57;;;5.30;99.90;;;;;;4910817;29;20267;-73
2022/11/28 09:03:14;;;;;;;12.83;10.30;;;5.30;99.90;;;;;;4911302;29;20296;-73
2022/11/28 09:05:44;;;;;;;13.87;10.77;;;5.30;99.90;;;;;;4910879;29;20236;-72
2022/11/28 09:08:12;;;;;;;13.90;10.63;;;5.40;99.90;;;;;;4910879;29;20213;-73
2022/11/28 09:10:41;;;;;;;12.47;10.27;;;5.40;99.90;;;;;;4910812;29;20244;-73
2022/11/28 09:13:08;;;;;;;13.17;10.73;;;5.40;99.90;;;;;;4910948;29;20303;-73
2022/11/28 09:15:38;;;;;;;14.30;10.17;;;5.40;99.90;;;;;;4911180;29;20284;-73
2022/11/28 09:18:06;;;;;;;12.90;10.30;;;5.40;99.90;;;;;;4910846;29;20691;-73
2022/11/28 09:20:33;;;;;;;13.57;10.90;;;5.40;99.90;;;;;;4911087;29;20244;-73
2022/11/28 09:23:00;;;;;;;14.67;10.87;;;5.40;99.90;;;;;;4910748;29;20660;-73
2022/11/28 09:25:29;;;;;;;13.37;10.37;;;5.40;99.90;;;;;;4910454;29;20308;-73
2022/11/28 09:27:55;;;;;;;14.70;10.63;;;5.40;99.90;;;;;;4911108;29;20226;-72
2022/11/28 09:30:22;;;;;;;13.07;10.90;;;5.60;99.90;;;;;;4910637;29;20297;-73
2022/11/28 09:32:49;;;;;;;14.47;10.77;;;5.50;99.90;;;;;;4910785;29;20244;-73
2022/11/28 09:35:17;;;;;;;14.93;10.73;;;5.60;99.90;;;;;;4910639;29;20292;-73
2022/11/28 09:37:44;;;;;;;15.50;10.50;;;5.60;99.90;;;;;;4910724;29;20623;-73
2022/11/28 09:40:16;;;;;;;13.87;10.97;;;5.60;99.90;;;;;;4910546;29;20240;-73
2022/11/28 09:42:46;;;;;;;13.03;10.00;;;5.60;99.90;;;;;;4910664;29;20216;-72
2022/11/28 09:45:16;;;;;;;14.00;10.43;;;5.60;99.90;;;;;;4911028;29;20213;-73
2022/11/28 09:47:47;;;;;;;21.47;11.20;;;5.70;99.90;;;;;;4910275;29;20241;-73
2022/11/28 09:50:19;;;;;;;12.60;10.03;;;5.70;99.90;;;;;;4910771;29;20669;-73
2022/11/28 09:52:53;;;;;;;17.30;11.20;;;5.70;99.90;;;;;;4910436;29;20649;-73
2022/11/28 09:55:29;;;;;;;12.93;10.50;;;5.60;99.90;;;;;;4910448;29;20296;-73
2022/11/28 09:57:59;;;;;;;13.47;10.13;;;5.70;99.90;;;;;;4912903;29;20672;-73
2022/11/28 10:00:37;;;;;;;13.30;10.07;;;5.70;99.90;;;;;;4913920;29;20271;-73
2022/11/28 10:03:27;;;;;;;13.90;10.90;;;5.70;99.90;;;;;;4914203;29;20219;-73
2022/11/28 10:06:04;;;;;;;16.07;11.30;;;5.70;99.90;;;;;;4913728;29;20280;-74
2022/11/28 10:08:38;;;;;;;14.53;11.27;;;5.70;99.90;;;;;;4913942;29;20208;-72
2022/11/28 10:11:14;;;;;;;14.30;10.83;;;5.60;99.90;;;;;;4913642;29;20232;-73
2022/11/28 10:13:50;;;;;;;15.80;10.33;;;5.60;99.90;;;;;;4914035;29;20284;-73
2022/11/28 10:16:23;;;;;;;14.00;10.00;;;5.60;99.90;;;;;;4914056;29;20555;-73
2022/11/28 10:18:55;;;;;;;14.20;10.57;;;5.70;99.90;;;;;;4913876;29;20567;-72
2022/11/28 10:21:28;;;;;;;15.03;10.47;;;5.70;99.90;;;;;;4913939;29;20315;-72
2022/11/28 10:23:58;;;;;;;15.63;11.20;;;5.70;99.90;;;;;;4913864;29;20416;-73
2022/11/28 10:26:31;;;;;;;17.10;10.97;;;5.70;99.90;;;;;;4913313;29;20462;-72
2022/11/28 10:29:04;;;;;;;15.70;11.00;;;5.80;99.90;;;;;;4913619;29;20289;-73
2022/11/28 10:31:36;;;;;;;14.67;11.37;;;5.80;99.90;;;;;;4913730;29;20216;-73
2022/11/28 10:34:08;;;;;;;17.37;11.10;;;5.80;99.90;;;;;;4913620;29;20236;-73
2022/11/28 10:36:47;;;;;;;17.20;11.70;;;5.80;99.90;;;;;;4913571;29;20284;-72
2022/11/28 10:39:14;;;;;;;16.93;11.77;;;5.90;99.90;;;;;;4897927;29;20549;-73
2022/11/28 10:42:10;;;;;;;15.43;11.30;;;5.90;99.90;;;;;;4894395;29;20249;-72
2022/11/28 10:44:58;;;;;;;15.30;11.10;;;5.90;99.90;;;;;;4902899;29;20215;-72
2022/11/28 10:47:53;;;;;;;17.30;11.33;;;5.90;99.90;;;;;;4912883;29;21019;-73
2022/11/28 10:50:32;;;;;;;14.67;10.27;;;5.90;99.90;;;;;;4913466;29;20284;-72
2022/11/28 10:53:01;;;;;;;15.10;10.70;;;6.00;99.90;;;;;;4913150;29;20205;-72
2022/11/28 10:55:38;;;;;;;14.57;10.53;;;6.00;99.90;;;;;;4912415;29;20736;-72
2022/11/28 10:58:13;;;;;;;19.10;12.03;;;6.00;99.90;;;;;;4913048;29;20315;-72
2022/11/28 11:00:44;;;;;;;15.60;10.90;;;6.00;99.90;;;;;;4912845;29;20224;-72
2022/11/28 11:03:13;;;;;;;16.67;10.50;;;6.00;99.90;;;;;;4912878;29;20193;-73
2022/11/28 11:05:40;;;;;;;15.17;11.83;;;6.00;99.90;;;;;;4912622;29;20268;-72
2022/11/28 11:08:17;;;;;;;13.97;10.83;;;6.10;99.90;;;;;;4911808;29;20300;-72
2022/11/28 11:10:49;;;;;;;16.80;11.23;;;6.10;99.90;;;;;;4912581;29;20197;-73
2022/11/28 11:13:22;;;;;;;15.40;11.50;;;6.10;99.90;;;;;;4912743;29;20212;-73
2022/11/28 11:15:58;;;;;;;15.30;10.83;;;6.10;99.90;;;;;;4912563;29;20197;-72
2022/11/28 11:18:26;;;;;;;15.83;11.20;;;6.10;99.90;;;;;;4912831;29;20204;-72
2022/11/28 11:21:08;;;;;;;16.30;11.63;;;6.20;99.90;;;;;;4912435;29;20236;-72
2022/11/28 11:23:37;;;;;;;14.60;11.17;;;6.20;99.90;;;;;;4912321;29;20224;-72
2022/11/28 11:26:08;;;;;;;15.57;11.23;;;6.20;99.90;;;;;;4912678;29;20220;-72
2022/11/28 11:28:43;;;;;;;16.60;11.30;;;6.20;99.90;;;;;;4912665;29;20201;-73
2022/11/28 11:31:38;;;;;;;14.50;10.67;;;6.20;99.90;;;;;;4912575;29;20196;-73
2022/11/28 11:34:12;;;;;;;15.27;10.60;;;6.20;99.90;;;;;;4912498;29;20219;-72
2022/11/28 11:36:39;;;;;;;15.63;11.10;;;6.20;99.90;;;;;;4912503;29;20205;-72
2022/11/28 11:39:15;;;;;;;14.37;10.73;;;6.20;99.90;;;;;;4911946;29;20666;-73
2022/11/28 11:41:43;;;;;;;14.47;10.77;;;6.30;99.90;;;;;;4912106;29;20236;-72
2022/11/28 11:44:29;;;;;;;16.23;11.43;;;6.20;99.90;;;;;;4912379;29;20647;-73
2022/11/28 11:47:01;;;;;;;15.87;11.00;;;6.20;99.90;;;;;;4912009;29;20259;-72
2022/11/28 11:49:30;;;;;;;17.53;11.53;;;6.20;99.90;;;;;;4912082;29;20295;-73
2022/11/28 11:51:59;;;;;;;14.77;11.20;;;6.20;99.90;;;;;;4912078;29;20205;-72
2022/11/28 11:54:26;;;;;;;15.17;10.77;;;6.20;99.90;;;;;;4911633;29;20296;-73
2022/11/28 11:56:53;;;;;;;16.13;11.50;;;6.20;99.90;;;;;;4912086;29;20240;-73
2022/11/28 11:59:24;;;;;;;14.83;10.50;;;6.20;99.90;;;;;;4912460;29;20256;-72
2022/11/28 12:01:55;;;;;;;17.70;11.40;;;6.20;99.90;;;;;;4912165;29;20308;-72
2022/11/28 12:04:30;;;;;;;15.43;11.27;;;6.20;99.90;;;;;;4912265;29;20197;-72
2022/11/28 12:07:00;;;;;;;15.33;11.13;;;6.20;99.90;;;;;;4911609;29;20243;-72
2022/11/28 12:09:33;;;;;;;15.30;11.03;;;6.20;99.90;;;;;;4911940;29;20631;-72
2022/11/28 12:12:09;;;;;;;15.07;10.57;;;6.20;99.90;;;;;;4911712;29;20207;-72
2022/11/28 12:14:38;;;;;;;13.87;10.20;;;6.10;99.90;;;;;;4911730;29;20208;-73
2022/11/28 12:17:24;;;;;;;16.77;11.40;;;6.20;99.90;;;;;;4911660;29;20251;-72
2022/11/28 12:20:05;;;;;;;17.27;11.50;;;6.20;99.90;;;;;;4911418;29;20224;-72
2022/11/28 12:22:38;;;;;;;15.70;10.60;;;6.20;99.90;;;;;;4911787;29;20223;-73
2022/11/28 12:25:14;;;;;;;15.90;11.33;;;6.20;99.90;;;;;;4911639;29;20236;-72
2022/11/28 12:27:59;;;;;;;18.67;11.80;;;6.20;99.90;;;;;;4911613;29;20204;-73
2022/11/28 12:30:35;;;;;;;16.40;11.00;;;6.20;99.90;;;;;;4911850;29;20200;-72
2022/11/28 12:33:17;;;;;;;16.03;10.53;;;6.20;99.90;;;;;;4911946;29;20291;-72
2022/11/28 12:35:55;;;;;;;13.93;10.33;;;6.20;99.90;;;;;;4911546;29;20257;-73
2022/11/28 12:38:31;;;;;;;14.43;10.67;;;6.20;99.90;;;;;;4901144;29;20556;-73
2022/11/28 12:41:13;;;;;;;14.70;9.83;;;6.20;99.90;;;;;;4911219;29;20236;-72
2022/11/28 12:43:54;;;;;;;12.57;9.63;;;6.30;99.90;;;;;;4911527;29;20201;-72
2022/11/28 12:46:30;;;;;;;14.53;9.93;;;6.30;99.90;;;;;;4911601;29;20197;-72
2022/11/28 12:49:13;;;;;;;15.13;10.27;;;6.30;99.90;;;;;;4911133;29;20227;-72
2022/11/28 12:51:57;;;;;;;13.07;10.20;;;6.30;99.90;;;;;;4911277;29;20204;-72
2022/11/28 12:54:41;;;;;;;14.10;9.83;;;6.30;99.90;;;;;;4911163;29;20660;-72
2022/11/28 12:57:14;;;;;;;13.57;9.77;;;6.30;99.90;;;;;;4911457;29;20234;-72
2022/11/28 12:59:50;;;;;;;14.97;10.03;;;6.30;99.90;;;;;;4911319;29;20198;-72
2022/11/28 13:02:29;;;;;;;12.80;9.73;;;6.30;99.90;;;;;;4911457;29;20280;-72
2022/11/28 13:05:21;;;;;;;13.00;9.50;;;6.30;99.90;;;;;;4911208;29;20721;-72